Aérodrome :
LOGIN :

S'inscrire | Disclaimer

   EN    FR    IT 

 










Légende :    VFR   VFR Marginal   IFR   IFR Intensif   IFR Très Intensif
Visi : 
Plafond : 
>= 8 km
>= 3000ft
5 à 8 km
1000 à 3000 ft
1500m à 5 km
500 à 1000 ft
800 à 1500m
200 à 500 ft
< 800m
< 200 ft
Symboles :   Orages  Brouillard  Fortes neiges  Fortes précipitations  Vent > 20 kt
SIGMETs :   Divers  Orages  Givrage  Turbulence  Onde Orograph.  Cendres Volcan.






- Altitude de l'aérodrome : 796 ft
- Code IATA : SYT


LFLN - Saint-Yan

DERNIER METAR :
  • 171100Z AUTO 30009KT 9999 BKN009 OVC015 05/04 Q1023 BECMG OVC020

METARs EXPIRÉS :
  • 171030Z AUTO 30007KT 9999 -RADZ BKN013 BKN020 OVC034 04/04 Q1023 BECMG OVC020
  • 171000Z AUTO 27007KT 240V310 6000 -RA BKN011 OVC027 04/04 Q1023 TEMPO 3000 -RA BECMG OVC020
  • 170930Z AUTO 29004KT 9999 -RA BKN007 OVC012 03/03 Q1023 TEMPO 3000 -RA BECMG OVC020
  • 170900Z AUTO 29003KT 7000 -RA OVC010 03/03 Q1022 TEMPO 0500 FG OVC003
  • 170830Z AUTO VRB02KT 0800 R33/1200U -RA FG BKN007 OVC012 02/02 Q1022 TEMPO 0500 FG OVC003

TAF AMD TAF LFLN
Valide du 17 à 09h jusqu'au 17 à 18h UTC


170908Z 1709/1718 VRB03KT 8000 OVC010
TEMPO 1709/1711 3000 -RA OVC003
BECMG 1711/1713 30010KT OVC020



MET'MAP, la Météo Aéronautique d'un coup d'oeil ! - Copyright ORBIFLY Décembre 2007 - Disclaimer

ORBIFLY MET'MAP TEAM :

Programmation & Développement : Alexandra Zaïnal
Sur une idée originale de : Baudouin d'Aumeries
Assistance à la programmation : Marc-Olivier Méhu
Soutien technique & logistique : Manuel Goepfert

Contact : metmap@orbifly.com




SOURCES & CREDITS :

   NOAA